createdAt,value
2023-05-20T00:00:56.890Z,94829.19
2023-05-20T00:03:25.710Z,94832.66
2023-05-20T00:05:53.776Z,94825.19
2023-05-20T00:08:20.484Z,94821.75
2023-05-20T00:10:47.104Z,94812.47
2023-05-20T00:13:13.662Z,94812.78
2023-05-20T00:15:40.610Z,94808.50
2023-05-20T00:18:07.492Z,94810.38
2023-05-20T00:20:34.201Z,94809.59
2023-05-20T00:23:02.256Z,94801.63
2023-05-20T00:25:30.853Z,94813.56
2023-05-20T00:27:57.551Z,94805.63
2023-05-20T00:30:24.330Z,94801.13
2023-05-20T00:32:51.224Z,94796.38
2023-05-20T00:35:18.014Z,94798.25
2023-05-20T00:37:45.216Z,94805.13
2023-05-20T00:40:15.487Z,94798.47
2023-05-20T00:42:42.609Z,94804.06
2023-05-20T00:45:09.552Z,94797.94
2023-05-20T00:47:39.315Z,94791.31
2023-05-20T00:50:07.842Z,94797.44
2023-05-20T00:52:34.889Z,94794.50
2023-05-20T00:55:01.690Z,94792.13
2023-05-20T00:57:30.072Z,94787.63
2023-05-20T00:59:56.772Z,94785.00
2023-05-20T01:02:24.164Z,94784.72
2023-05-20T01:04:51.051Z,94781.28
2023-05-20T01:07:18.666Z,94780.75
2023-05-20T01:09:46.219Z,94772.78
2023-05-20T01:12:15.259Z,94779.69
2023-05-20T01:14:46.878Z,94766.97
2023-05-20T01:17:17.966Z,94770.41
2023-05-20T01:19:45.290Z,94771.19
2023-05-20T01:22:15.440Z,94771.97
2023-05-20T01:24:45.152Z,94766.16
2023-05-20T01:27:13.438Z,94760.59
2023-05-20T01:29:42.164Z,94763.50
2023-05-20T01:32:11.071Z,94763.28
2023-05-20T01:34:39.297Z,94758.50
2023-05-20T01:37:07.081Z,94755.63
2023-05-20T01:39:36.343Z,94757.97
2023-05-20T01:42:04.970Z,94756.13
2023-05-20T01:44:31.959Z,94761.72
2023-05-20T01:46:59.600Z,94769.34
2023-05-20T01:49:26.414Z,94766.47
2023-05-20T01:51:52.985Z,94768.06
2023-05-20T01:54:20.254Z,94763.03
2023-05-20T01:56:47.164Z,94765.44
2023-05-20T01:59:16.113Z,94763.59
2023-05-20T02:01:42.800Z,94757.75
2023-05-20T02:04:09.416Z,94764.66
2023-05-20T02:06:36.094Z,94758.56
2023-05-20T02:09:03.621Z,94758.31
2023-05-20T02:11:30.377Z,94760.41
2023-05-20T02:13:57.102Z,94769.16
2023-05-20T02:16:25.794Z,94762.56
2023-05-20T02:18:53.039Z,94766.81
2023-05-20T02:21:19.768Z,94766.25
2023-05-20T02:23:46.735Z,94757.28
2023-05-20T02:26:13.249Z,94755.69
2023-05-20T02:28:43.531Z,94760.72
2023-05-20T02:31:10.148Z,94757.28
2023-05-20T02:33:38.488Z,94758.06
2023-05-20T02:36:06.281Z,94760.44
2023-05-20T02:38:33.880Z,94761.25
2023-05-20T02:41:00.475Z,94767.34
2023-05-20T02:43:27.009Z,94767.59
2023-05-20T02:45:53.816Z,94774.22
2023-05-20T02:48:20.485Z,94767.88
2023-05-20T02:50:49.004Z,94759.66
2023-05-20T02:53:15.794Z,94764.69
2023-05-20T02:55:42.336Z,94755.97
2023-05-20T02:58:08.858Z,94762.84
2023-05-20T03:00:40.743Z,94750.66
2023-05-20T03:03:07.930Z,94756.75
2023-05-20T03:05:37.939Z,94759.13
2023-05-20T03:08:09.554Z,94756.75
2023-05-20T03:10:36.766Z,94757.53
2023-05-20T03:13:05.027Z,94759.66
2023-05-20T03:15:32.082Z,94759.94
2023-05-20T03:17:58.871Z,94755.16
2023-05-20T03:20:26.997Z,94751.44
2023-05-20T03:22:54.593Z,94755.16
2023-05-20T03:25:22.552Z,94755.69
2023-05-20T03:27:49.051Z,94753.56
2023-05-20T03:30:16.029Z,94760.94
2023-05-20T03:32:42.684Z,94754.81
2023-05-20T03:35:09.959Z,94757.66
2023-05-20T03:37:37.035Z,94751.59
2023-05-20T03:40:06.171Z,94753.19
2023-05-20T03:42:35.139Z,94748.94
2023-05-20T03:45:01.819Z,94755.31
2023-05-20T03:47:32.470Z,94766.13
2023-05-20T03:49:59.094Z,94760.84
2023-05-20T03:52:25.674Z,94758.72
2023-05-20T03:54:52.329Z,94754.28
2023-05-20T03:57:19.714Z,94758.78
2023-05-20T03:59:47.680Z,94763.56
2023-05-20T04:02:14.265Z,94764.34
2023-05-20T04:04:43.200Z,94754.56
2023-05-20T04:07:09.889Z,94750.28
2023-05-20T04:09:36.799Z,94751.56
2023-05-20T04:12:04.717Z,94755.81
2023-05-20T04:14:35.049Z,94750.78
2023-05-20T04:17:04.673Z,94752.38
2023-05-20T04:19:32.322Z,94750.22
2023-05-20T04:21:58.836Z,94759.47
2023-05-20T04:24:25.543Z,94766.38
2023-05-20T04:26:52.371Z,94755.00
2023-05-20T04:29:19.545Z,94753.16
2023-05-20T04:31:46.418Z,94754.19
2023-05-20T04:34:14.904Z,94749.44
2023-05-20T04:36:41.753Z,94752.66
2023-05-20T04:39:09.001Z,94747.69
2023-05-20T04:41:36.401Z,94748.75
2023-05-20T04:44:03.893Z,94751.91
2023-05-20T04:46:31.716Z,94746.34
2023-05-20T04:48:58.548Z,94750.34
2023-05-20T04:51:26.528Z,94746.38
2023-05-20T04:53:53.145Z,94745.31
2023-05-20T04:56:19.717Z,94749.81
2023-05-20T04:58:46.405Z,94749.81
2023-05-20T05:01:12.957Z,94747.72
2023-05-20T05:03:41.581Z,94746.94
2023-05-20T05:06:08.321Z,94745.88
2023-05-20T05:08:36.364Z,94745.34
2023-05-20T05:11:05.218Z,94737.16
2023-05-20T05:13:31.954Z,94730.00
2023-05-20T05:15:59.288Z,94732.91
2023-05-20T05:18:27.230Z,94739.78
2023-05-20T05:20:58.824Z,94743.75
2023-05-20T05:23:25.701Z,94734.50
2023-05-20T05:25:54.557Z,94739.53
2023-05-20T05:28:21.441Z,94738.72
2023-05-20T05:30:47.983Z,94733.16
2023-05-20T05:33:14.724Z,94745.84
2023-05-20T05:35:41.349Z,94734.44
2023-05-20T05:38:08.015Z,94738.94
2023-05-20T05:40:35.320Z,94733.63
2023-05-20T05:43:03.758Z,94734.13
2023-05-20T05:45:30.894Z,94736.22
2023-05-20T05:47:57.606Z,94736.00
2023-05-20T05:50:25.552Z,94734.91
2023-05-20T05:52:52.795Z,94738.06
2023-05-20T05:55:20.496Z,94739.63
2023-05-20T05:57:47.119Z,94746.78
2023-05-20T06:00:18.134Z,94740.91
2023-05-20T06:02:44.826Z,94743.03
2023-05-20T06:05:13.570Z,94738.25
2023-05-20T06:07:40.380Z,94731.91
2023-05-20T06:10:07.455Z,94742.97
2023-05-20T06:12:33.991Z,94739.50
2023-05-20T06:15:00.864Z,94735.50
2023-05-20T06:17:29.774Z,94736.78
2023-05-20T06:19:56.383Z,94734.91
2023-05-20T06:22:22.908Z,94740.00
2023-05-20T06:24:49.709Z,94744.75
2023-05-20T06:27:16.475Z,94737.28
2023-05-20T06:29:43.881Z,94742.28
2023-05-20T06:32:11.034Z,94736.97
2023-05-20T06:34:39.643Z,94736.41
2023-05-20T06:37:06.877Z,94736.91
2023-05-20T06:39:33.682Z,94735.53
2023-05-20T06:42:00.824Z,94734.44
2023-05-20T06:44:29.503Z,94730.00
2023-05-20T06:47:01.796Z,94723.06
2023-05-20T06:49:28.540Z,94723.88
2023-05-20T06:51:56.634Z,94728.91
2023-05-20T06:54:24.372Z,94737.09
2023-05-20T06:56:51.100Z,94732.31
2023-05-20T06:59:18.006Z,94725.97
2023-05-20T07:01:44.767Z,94728.31
2023-05-20T07:04:12.248Z,94714.22
2023-05-20T07:06:39.117Z,94717.31
2023-05-20T07:09:07.294Z,94708.75
2023-05-20T07:11:33.809Z,94709.78
2023-05-20T07:14:00.553Z,94711.41
2023-05-20T07:16:29.675Z,94706.09
2023-05-20T07:18:56.569Z,94705.28
2023-05-20T07:21:23.969Z,94706.09
2023-05-20T07:24:14.843Z,94695.91
2023-05-20T07:26:41.747Z,94700.88
2023-05-20T07:29:10.121Z,94691.19
2023-05-20T07:31:38.297Z,94688.47
2023-05-20T07:34:04.950Z,94673.28
2023-05-20T07:36:31.627Z,94670.88
2023-05-20T07:39:05.215Z,94668.94
2023-05-20T07:41:37.204Z,94670.75
2023-05-20T07:44:05.064Z,94671.47
2023-05-20T07:46:34.341Z,94670.63
2023-05-20T07:49:01.223Z,94680.69
2023-05-20T07:51:27.933Z,94688.31
2023-05-20T07:53:54.521Z,94689.06
2023-05-20T07:56:22.535Z,94683.91
2023-05-20T07:58:54.584Z,94683.16
2023-05-20T08:01:22.590Z,94678.78
2023-05-20T08:03:49.725Z,94677.06
2023-05-20T08:06:24.510Z,94676.09
2023-05-20T08:08:51.320Z,94674.72
2023-05-20T08:23:59.472Z,94680.41
2023-05-20T08:40:04.377Z,94670.22
2023-05-20T08:57:38.030Z,94659.31
